createdAt,value
2022-11-06T00:00:09.435Z,21.14
2022-11-06T00:02:57.771Z,21.15
2022-11-06T00:06:01.542Z,21.07
2022-11-06T00:08:46.840Z,21.01
2022-11-06T00:11:32.221Z,20.96
2022-11-06T00:14:18.057Z,20.92
2022-11-06T00:17:03.173Z,20.90
2022-11-06T00:19:48.459Z,20.85
2022-11-06T00:22:34.526Z,20.82
2022-11-06T00:25:19.907Z,20.79
2022-11-06T00:28:05.418Z,20.74
2022-11-06T00:30:50.590Z,20.71
2022-11-06T00:33:36.007Z,20.69
2022-11-06T00:36:22.802Z,20.67
2022-11-06T00:39:10.910Z,20.63
2022-11-06T00:41:56.455Z,20.60
2022-11-06T00:44:41.776Z,20.58
2022-11-06T00:47:27.012Z,20.58
2022-11-06T00:50:12.370Z,20.56
2022-11-06T00:52:57.527Z,20.52
2022-11-06T00:55:42.810Z,20.51
2022-11-06T00:58:28.209Z,20.50
2022-11-06T01:01:19.848Z,20.48
2022-11-06T01:04:13.212Z,20.44
2022-11-06T01:06:58.869Z,20.41
2022-11-06T01:09:44.327Z,20.39
2022-11-06T01:12:31.989Z,20.37
2022-11-06T01:15:17.580Z,20.34
2022-11-06T01:18:02.975Z,20.33
2022-11-06T01:20:48.870Z,20.33
2022-11-06T01:23:34.620Z,20.30
2022-11-06T01:26:36.870Z,20.29
2022-11-06T01:29:23.548Z,20.27
2022-11-06T01:32:09.502Z,20.25
2022-11-06T01:34:54.992Z,20.23
2022-11-06T01:37:40.274Z,20.22
2022-11-06T01:40:25.689Z,20.20
2022-11-06T01:43:45.644Z,20.19
2022-11-06T01:46:33.782Z,20.17
2022-11-06T01:49:19.516Z,20.17
2022-11-06T01:52:09.330Z,20.15
2022-11-06T01:54:58.438Z,20.13
2022-11-06T01:57:44.663Z,20.13
2022-11-06T02:00:31.232Z,20.10
2022-11-06T02:03:16.966Z,20.09
2022-11-06T02:06:03.221Z,20.09
2022-11-06T02:08:48.615Z,20.08
2022-11-06T02:11:33.735Z,20.06
2022-11-06T02:14:34.845Z,20.04
2022-11-06T02:17:47.192Z,20.04
2022-11-06T02:20:55.907Z,20.03
2022-11-06T02:23:57.527Z,20.01
2022-11-06T02:27:00.632Z,20.01
2022-11-06T02:29:46.580Z,19.99
2022-11-06T02:32:52.256Z,19.98
2022-11-06T02:36:03.913Z,19.97
2022-11-06T02:39:00.977Z,19.94
2022-11-06T02:41:49.658Z,19.94
2022-11-06T02:44:37.272Z,19.94
2022-11-06T02:47:25.412Z,19.94
2022-11-06T02:50:17.453Z,19.92
2022-11-06T02:53:06.768Z,19.90
2022-11-06T02:56:00.122Z,19.90
2022-11-06T02:58:55.365Z,19.90
2022-11-06T03:01:48.498Z,19.90
2022-11-06T03:04:40.762Z,19.89
2022-11-06T03:07:50.277Z,19.88
2022-11-06T03:11:31.219Z,19.88
2022-11-06T03:14:23.451Z,19.86
2022-11-06T03:17:46.087Z,19.86
2022-11-06T03:20:41.991Z,19.85
2022-11-06T03:23:49.251Z,19.84
2022-11-06T03:26:38.537Z,19.84
2022-11-06T03:29:46.368Z,19.83
2022-11-06T03:32:41.414Z,19.82
2022-11-06T03:35:38.408Z,19.81
2022-11-06T03:38:27.742Z,19.81
2022-11-06T03:41:20.533Z,19.81
2022-11-06T03:44:11.402Z,19.78
2022-11-06T03:47:15.902Z,19.78
2022-11-06T03:50:08.391Z,19.78
2022-11-06T03:53:03.893Z,19.76
2022-11-06T03:55:55.860Z,19.77
2022-11-06T03:58:44.367Z,19.76
2022-11-06T04:01:34.194Z,19.75
2022-11-06T04:04:23.521Z,19.75
2022-11-06T04:07:14.104Z,19.76
2022-11-06T04:10:22.369Z,19.75
2022-11-06T04:13:26.344Z,19.74
2022-11-06T04:16:12.238Z,19.72
2022-11-06T04:18:57.959Z,19.73
2022-11-06T04:22:01.953Z,19.72
2022-11-06T04:25:31.666Z,19.71
2022-11-06T04:28:23.052Z,19.72
2022-11-06T04:31:28.324Z,19.70
2022-11-06T04:34:24.926Z,19.70
2022-11-06T04:37:34.148Z,19.69
2022-11-06T04:40:32.932Z,19.68
2022-11-06T04:43:41.737Z,19.68
2022-11-06T04:46:36.726Z,19.68
2022-11-06T04:49:23.884Z,19.66
2022-11-06T04:52:17.609Z,19.67
2022-11-06T04:55:03.208Z,19.67
2022-11-06T04:57:49.867Z,19.66
2022-11-06T05:00:35.228Z,19.66
2022-11-06T05:03:20.583Z,19.66
2022-11-06T05:06:06.045Z,19.66
2022-11-06T05:08:51.575Z,19.65
2022-11-06T05:11:38.446Z,19.64
2022-11-06T05:14:23.525Z,19.65
2022-11-06T05:17:08.927Z,19.64
2022-11-06T05:19:54.206Z,19.64
2022-11-06T05:22:58.110Z,19.64
2022-11-06T05:25:43.647Z,19.64
2022-11-06T05:28:28.909Z,19.64
2022-11-06T05:31:14.173Z,19.65
2022-11-06T05:33:59.260Z,19.64
2022-11-06T05:36:44.679Z,19.63
2022-11-06T05:39:29.983Z,19.64
2022-11-06T05:42:15.193Z,19.64
2022-11-06T05:45:00.376Z,19.63
2022-11-06T05:47:45.610Z,19.64
2022-11-06T05:50:31.017Z,19.63
2022-11-06T05:53:22.370Z,19.64
2022-11-06T05:56:08.051Z,19.63
2022-11-06T05:58:53.329Z,19.62
2022-11-06T06:01:38.723Z,19.62
2022-11-06T06:04:24.305Z,19.63
2022-11-06T06:07:10.127Z,19.66
2022-11-06T06:09:56.640Z,19.70
2022-11-06T06:12:42.320Z,19.74
2022-11-06T06:15:27.739Z,19.77
2022-11-06T06:18:13.857Z,19.76
2022-11-06T06:20:59.334Z,19.81
2022-11-06T06:23:44.628Z,19.85
2022-11-06T06:26:57.004Z,19.89
2022-11-06T06:29:42.738Z,19.91
2022-11-06T06:32:28.102Z,19.96
2022-11-06T06:35:13.660Z,19.98
2022-11-06T06:37:59.467Z,19.96
2022-11-06T06:40:44.870Z,19.99
2022-11-06T06:43:30.463Z,20.02
2022-11-06T06:46:16.753Z,20.04
2022-11-06T06:49:02.343Z,20.05
2022-11-06T06:51:48.798Z,20.09
2022-11-06T06:54:35.709Z,20.12
2022-11-06T06:57:20.732Z,20.14
2022-11-06T07:00:06.735Z,20.19
2022-11-06T07:02:52.856Z,20.19
2022-11-06T07:05:39.681Z,20.19
2022-11-06T07:08:26.777Z,20.21
2022-11-06T07:11:12.138Z,20.23
2022-11-06T07:13:57.631Z,20.25
2022-11-06T07:16:43.511Z,20.27
2022-11-06T07:19:28.778Z,20.29
2022-11-06T07:22:14.110Z,20.31
2022-11-06T07:24:59.776Z,20.33
2022-11-06T07:27:45.263Z,20.38
2022-11-06T07:30:31.004Z,20.39
2022-11-06T07:33:16.311Z,20.41
2022-11-06T07:36:12.339Z,20.41
2022-11-06T07:39:05.040Z,20.43
2022-11-06T07:41:51.357Z,20.46
2022-11-06T07:44:36.813Z,20.48
2022-11-06T07:47:22.693Z,20.48
2022-11-06T07:50:08.206Z,20.47
2022-11-06T07:52:54.001Z,20.40
2022-11-06T07:55:42.334Z,20.35
2022-11-06T07:58:28.354Z,20.37
2022-11-06T08:01:18.654Z,20.40
2022-11-06T08:04:04.443Z,20.42
2022-11-06T08:06:50.287Z,20.45
2022-11-06T08:09:36.000Z,20.45
2022-11-06T08:12:21.273Z,20.45
2022-11-06T08:15:07.069Z,20.46
2022-11-06T08:17:52.526Z,20.48
2022-11-06T08:20:39.278Z,20.47
2022-11-06T08:23:24.756Z,20.49
2022-11-06T08:26:11.049Z,20.52
2022-11-06T08:28:57.697Z,20.58
2022-11-06T08:31:43.472Z,20.60
2022-11-06T08:34:29.067Z,20.62
2022-11-06T08:37:14.250Z,20.62
2022-11-06T08:39:59.369Z,20.61
2022-11-06T08:42:44.668Z,20.60
2022-11-06T08:45:30.580Z,20.62
2022-11-06T08:48:15.836Z,20.60
2022-11-06T08:51:01.277Z,20.60
2022-11-06T08:53:46.963Z,20.63
2022-11-06T08:56:32.150Z,20.60
2022-11-06T08:59:17.637Z,20.65
2022-11-06T09:02:03.496Z,20.64
2022-11-06T09:04:48.922Z,20.66
2022-11-06T09:07:34.557Z,20.72
2022-11-06T09:10:20.243Z,20.74
2022-11-06T09:13:06.416Z,20.71
2022-11-06T09:15:52.382Z,20.72
2022-11-06T09:21:24.131Z,20.76
2022-11-06T09:24:09.581Z,20.76
2022-11-06T09:26:55.555Z,20.82
2022-11-06T09:29:43.945Z,20.85
2022-11-06T09:32:29.554Z,20.83
2022-11-06T09:35:15.381Z,20.84
2022-11-06T09:38:10.124Z,20.84
2022-11-06T09:40:59.144Z,20.87
2022-11-06T09:44:08.703Z,20.87
2022-11-06T09:46:58.693Z,20.92
2022-11-06T09:49:53.996Z,20.94
2022-11-06T09:52:54.737Z,20.96
2022-11-06T09:55:43.423Z,21.01
2022-11-06T09:58:35.470Z,21.08
2022-11-06T10:01:34.451Z,21.12
2022-11-06T10:04:39.331Z,21.14
2022-11-06T10:07:29.274Z,21.16
2022-11-06T10:10:21.012Z,21.18
2022-11-06T10:13:25.648Z,21.22
2022-11-06T10:16:43.729Z,21.21
2022-11-06T10:19:41.646Z,21.21
2022-11-06T10:22:40.288Z,21.26
2022-11-06T10:25:36.036Z,21.26
2022-11-06T10:28:29.202Z,21.27
2022-11-06T10:31:33.328Z,21.29
2022-11-06T10:34:29.997Z,21.28
2022-11-06T10:37:42.937Z,21.26
2022-11-06T10:40:31.708Z,21.27
2022-11-06T10:43:24.166Z,21.27
2022-11-06T10:46:09.619Z,21.28
2022-11-06T10:49:01.225Z,21.23
2022-11-06T10:52:10.104Z,21.22
2022-11-06T10:55:26.266Z,21.20
2022-11-06T10:58:21.501Z,21.27
2022-11-06T11:01:12.084Z,21.25
2022-11-06T11:03:57.468Z,21.22
2022-11-06T11:06:42.874Z,21.21
2022-11-06T11:09:32.274Z,21.18
2022-11-06T11:12:30.751Z,21.21
2022-11-06T11:15:19.523Z,21.23
2022-11-06T11:18:07.923Z,21.23
2022-11-06T11:21:07.466Z,21.28
2022-11-06T11:24:09.584Z,21.35
2022-11-06T11:27:04.457Z,21.38
2022-11-06T11:29:50.550Z,21.40
2022-11-06T11:32:36.389Z,21.42
2022-11-06T11:35:30.806Z,21.43
2022-11-06T11:38:18.969Z,21.44
2022-11-06T11:41:19.638Z,21.44
2022-11-06T11:44:09.427Z,21.44
2022-11-06T11:46:55.283Z,21.46
2022-11-06T11:49:40.483Z,21.48
2022-11-06T11:52:25.658Z,21.47
2022-11-06T11:55:17.628Z,21.45
2022-11-06T11:58:03.464Z,21.47
2022-11-06T12:00:53.667Z,21.50
2022-11-06T12:03:43.437Z,21.49
2022-11-06T12:06:28.998Z,21.50
2022-11-06T12:09:14.374Z,21.51
2022-11-06T12:12:01.557Z,21.51
2022-11-06T12:14:46.826Z,21.48
2022-11-06T12:17:35.888Z,21.48
2022-11-06T12:20:34.819Z,21.50
2022-11-06T12:23:28.367Z,21.55
2022-11-06T12:26:20.009Z,21.56
2022-11-06T12:29:26.493Z,21.54
2022-11-06T12:32:47.353Z,21.55
2022-11-06T12:35:38.198Z,21.56
2022-11-06T12:38:46.324Z,21.57
2022-11-06T12:41:36.325Z,21.59
2022-11-06T12:44:21.899Z,21.59
2022-11-06T12:47:27.491Z,21.62
2022-11-06T12:50:29.301Z,21.62
2022-11-06T12:53:27.169Z,21.63
2022-11-06T12:56:34.903Z,21.67
2022-11-06T12:59:50.014Z,21.68
2022-11-06T13:03:05.691Z,21.68
2022-11-06T13:06:13.541Z,21.66
2022-11-06T13:09:18.463Z,21.62
2022-11-06T13:12:15.864Z,21.62
2022-11-06T13:15:17.797Z,21.58
2022-11-06T13:18:24.204Z,21.57
2022-11-06T13:21:12.934Z,21.58
2022-11-06T13:24:07.098Z,21.61
2022-11-06T13:27:14.235Z,21.61
2022-11-06T13:30:12.197Z,21.63
2022-11-06T13:33:08.679Z,21.64
2022-11-06T13:35:54.936Z,21.65
2022-11-06T13:38:55.127Z,21.65
2022-11-06T13:41:40.558Z,21.66
2022-11-06T13:44:27.525Z,21.64
2022-11-06T13:47:22.411Z,21.65
2022-11-06T13:50:25.260Z,21.65
2022-11-06T13:53:17.699Z,21.66
2022-11-06T13:56:44.804Z,21.64
2022-11-06T13:59:49.099Z,21.62
2022-11-06T14:03:12.231Z,21.63
2022-11-06T14:06:05.604Z,21.59
2022-11-06T14:08:52.468Z,21.57
2022-11-06T14:11:42.184Z,21.55
2022-11-06T14:14:30.447Z,21.56
2022-11-06T14:17:16.299Z,21.57
2022-11-06T14:20:25.660Z,21.58
2022-11-06T14:23:38.289Z,21.57
2022-11-06T14:26:50.316Z,21.58
2022-11-06T14:29:35.649Z,21.59
2022-11-06T14:32:21.641Z,21.56
2022-11-06T14:35:29.115Z,21.57
2022-11-06T14:38:29.774Z,21.55
2022-11-06T14:41:34.118Z,21.57
2022-11-06T14:44:27.928Z,21.57
2022-11-06T14:47:45.864Z,21.54
2022-11-06T14:50:39.020Z,21.55
2022-11-06T14:53:29.907Z,21.56
2022-11-06T14:56:31.367Z,21.58
2022-11-06T14:59:22.050Z,21.56
2022-11-06T15:02:23.367Z,21.55
2022-11-06T15:05:17.842Z,21.54
2022-11-06T15:08:05.274Z,21.54
2022-11-06T15:10:53.627Z,21.56
2022-11-06T15:13:39.031Z,21.61
2022-11-06T15:16:28.410Z,21.63
2022-11-06T15:19:17.897Z,21.66
2022-11-06T15:22:07.044Z,21.69
2022-11-06T15:25:06.673Z,21.72
2022-11-06T15:28:04.295Z,21.68
2022-11-06T15:31:00.744Z,21.72
2022-11-06T15:34:13.457Z,21.69
2022-11-06T15:37:11.771Z,21.72
2022-11-06T15:40:01.253Z,21.72
2022-11-06T15:42:47.277Z,21.69
2022-11-06T15:45:32.940Z,21.72
2022-11-06T15:48:24.008Z,21.69
2022-11-06T15:51:21.082Z,21.72
2022-11-06T15:54:06.917Z,21.68
2022-11-06T15:56:54.287Z,21.67
2022-11-06T15:59:40.814Z,21.68
2022-11-06T16:02:26.475Z,21.68
2022-11-06T16:05:12.139Z,21.69
2022-11-06T16:08:00.249Z,21.67
2022-11-06T16:10:48.388Z,21.66
2022-11-06T16:13:34.040Z,21.63
2022-11-06T16:16:36.272Z,21.62
2022-11-06T16:19:35.106Z,21.57
2022-11-06T16:22:29.187Z,21.59
2022-11-06T16:25:19.479Z,21.59
2022-11-06T16:28:05.281Z,21.64
2022-11-06T16:30:51.658Z,21.61
2022-11-06T16:33:37.465Z,21.56
2022-11-06T16:36:23.470Z,21.54
2022-11-06T16:39:18.144Z,21.54
2022-11-06T16:42:23.210Z,21.53
2022-11-06T16:45:17.929Z,21.54
2022-11-06T16:48:06.191Z,21.56
2022-11-06T16:50:57.150Z,21.57
2022-11-06T16:53:48.997Z,21.57
2022-11-06T16:56:35.027Z,21.57
2022-11-06T16:59:25.147Z,21.55
2022-11-06T17:02:24.024Z,21.53
2022-11-06T17:05:16.535Z,21.48
2022-11-06T17:08:20.597Z,21.48
2022-11-06T17:11:12.077Z,21.44
2022-11-06T17:13:57.719Z,21.43
2022-11-06T17:16:49.826Z,21.41
2022-11-06T17:19:35.297Z,21.39
2022-11-06T17:22:26.382Z,21.39
2022-11-06T17:25:12.199Z,21.40
2022-11-06T17:27:57.933Z,21.40
2022-11-06T17:30:43.774Z,21.35
2022-11-06T17:33:29.249Z,21.35
2022-11-06T17:36:18.195Z,21.36
2022-11-06T17:39:04.240Z,21.34
2022-11-06T17:41:49.823Z,21.33
2022-11-06T17:44:35.167Z,21.32
2022-11-06T17:47:20.537Z,21.33
2022-11-06T17:50:06.386Z,21.34
2022-11-06T17:52:51.937Z,21.27
2022-11-06T17:55:37.518Z,21.27
2022-11-06T17:58:23.093Z,21.30
2022-11-06T18:01:10.596Z,21.30
2022-11-06T18:03:56.383Z,21.34
2022-11-06T18:06:47.887Z,21.34
2022-11-06T18:09:33.494Z,21.31
2022-11-06T18:12:21.517Z,21.29
2022-11-06T18:15:07.463Z,21.32
2022-11-06T18:17:52.836Z,21.33
2022-11-06T18:20:44.069Z,21.34
2022-11-06T18:23:29.136Z,21.36
2022-11-06T18:26:14.545Z,21.36
2022-11-06T18:29:00.249Z,21.41
2022-11-06T18:31:45.791Z,21.42
2022-11-06T18:34:31.148Z,21.43
2022-11-06T18:37:16.772Z,21.43
2022-11-06T18:40:02.721Z,21.44
2022-11-06T18:42:48.403Z,21.44
2022-11-06T18:45:38.115Z,21.43
2022-11-06T18:48:23.732Z,21.41
2022-11-06T18:51:27.549Z,21.39
2022-11-06T18:54:19.038Z,21.41
2022-11-06T18:57:04.152Z,21.40
2022-11-06T18:59:49.500Z,21.39
2022-11-06T19:02:34.893Z,21.34
2022-11-06T19:05:20.589Z,21.29
2022-11-06T19:08:05.921Z,21.26
2022-11-06T19:10:51.030Z,21.23
2022-11-06T19:13:36.622Z,21.21
2022-11-06T19:16:22.141Z,21.22
2022-11-06T19:19:07.604Z,21.20
2022-11-06T19:21:53.277Z,21.23
2022-11-06T19:24:38.700Z,21.21
2022-11-06T19:27:23.909Z,21.18
2022-11-06T19:30:09.578Z,21.16
2022-11-06T19:32:54.709Z,21.16
2022-11-06T19:35:40.383Z,21.14
2022-11-06T19:38:25.658Z,21.14
2022-11-06T19:41:10.976Z,21.11
2022-11-06T19:43:56.827Z,21.10
2022-11-06T19:46:42.369Z,21.11
2022-11-06T19:49:27.721Z,21.08
2022-11-06T19:52:41.258Z,21.09
2022-11-06T19:55:25.965Z,21.09
2022-11-06T19:58:15.628Z,21.06
2022-11-06T20:01:06.934Z,21.01
2022-11-06T20:03:52.244Z,21.03
2022-11-06T20:06:39.198Z,21.03
2022-11-06T20:09:24.470Z,21.02
2022-11-06T20:12:09.833Z,21.01
2022-11-06T20:14:54.930Z,21.00
2022-11-06T20:17:40.339Z,20.99
2022-11-06T20:20:26.013Z,20.99
2022-11-06T20:23:12.213Z,20.99
2022-11-06T20:25:57.831Z,20.99
2022-11-06T20:28:43.195Z,20.98
2022-11-06T20:31:28.651Z,21.00
2022-11-06T20:34:13.926Z,21.02
2022-11-06T20:36:59.407Z,21.03
2022-11-06T20:39:45.500Z,21.04
2022-11-06T20:42:31.065Z,21.05
2022-11-06T20:45:16.430Z,21.08
2022-11-06T20:48:01.562Z,21.09
2022-11-06T20:51:01.041Z,21.09
2022-11-06T20:53:47.125Z,21.10
2022-11-06T20:56:33.338Z,21.12
2022-11-06T20:59:19.197Z,21.12
2022-11-06T21:02:04.585Z,21.13
2022-11-06T21:04:49.790Z,21.15
2022-11-06T21:07:35.319Z,21.14
2022-11-06T21:10:20.466Z,21.15
2022-11-06T21:13:05.757Z,21.15
2022-11-06T21:16:05.407Z,21.17
2022-11-06T21:18:51.149Z,21.16
2022-11-06T21:21:39.643Z,21.15
2022-11-06T21:24:25.464Z,21.15
2022-11-06T21:27:10.838Z,21.14
2022-11-06T21:29:57.206Z,21.11
2022-11-06T21:32:42.493Z,21.09
2022-11-06T21:35:27.806Z,21.07
2022-11-06T21:38:12.988Z,21.04
2022-11-06T21:40:58.387Z,21.01
2022-11-06T21:43:44.440Z,20.95
2022-11-06T21:46:29.890Z,20.93
2022-11-06T21:49:15.267Z,20.89
2022-11-06T21:52:23.898Z,20.86
2022-11-06T21:55:30.642Z,20.81
2022-11-06T21:58:16.446Z,20.79
2022-11-06T22:01:05.825Z,20.77
2022-11-06T22:03:51.516Z,20.73
2022-11-06T22:06:40.271Z,20.71
2022-11-06T22:09:26.207Z,20.68
2022-11-06T22:12:11.453Z,20.65
2022-11-06T22:14:56.548Z,20.63
2022-11-06T22:17:41.792Z,20.62
2022-11-06T22:20:26.942Z,20.58
2022-11-06T22:23:14.414Z,20.57
2022-11-06T22:26:00.113Z,20.54
2022-11-06T22:28:45.710Z,20.52
2022-11-06T22:31:31.269Z,20.50
2022-11-06T22:34:16.534Z,20.48
2022-11-06T22:37:01.686Z,20.47
2022-11-06T22:39:50.073Z,20.45
2022-11-06T22:42:35.268Z,20.44
2022-11-06T22:45:20.953Z,20.43
2022-11-06T22:48:06.357Z,20.41
2022-11-06T22:50:51.437Z,20.38
2022-11-06T22:53:36.724Z,20.38
2022-11-06T22:56:23.756Z,20.35
2022-11-06T22:59:10.593Z,20.34
2022-11-06T23:01:56.103Z,20.32
2022-11-06T23:04:41.419Z,20.31
2022-11-06T23:07:26.697Z,20.30
2022-11-06T23:10:12.055Z,20.29
2022-11-06T23:12:57.945Z,20.27
2022-11-06T23:15:43.325Z,20.26
2022-11-06T23:18:28.606Z,20.26
2022-11-06T23:21:19.065Z,20.25
2022-11-06T23:24:05.909Z,20.23
2022-11-06T23:26:51.483Z,20.23
2022-11-06T23:29:36.760Z,20.22
2022-11-06T23:32:22.263Z,20.19
2022-11-06T23:35:13.297Z,20.19
2022-11-06T23:37:59.733Z,20.18
2022-11-06T23:40:45.336Z,20.18
2022-11-06T23:43:30.514Z,20.17
2022-11-06T23:46:21.007Z,20.16
2022-11-06T23:49:06.446Z,20.15
2022-11-06T23:51:51.775Z,20.14
2022-11-06T23:54:37.114Z,20.13
2022-11-06T23:57:22.549Z,20.12
